sensor_id;sensor_type;location;lat;lon;timestamp;P1;durP1;ratioP1;P2;durP2;ratioP2
45274;SDS011;31019;43.780;25.948;2024-03-22T00:00:06;29.52;;;27.83;;
45274;SDS011;31019;43.780;25.948;2024-03-22T00:02:36;28.83;;;27.33;;
45274;SDS011;31019;43.780;25.948;2024-03-22T00:05:05;33.10;;;31.20;;
45274;SDS011;31019;43.780;25.948;2024-03-22T00:07:31;35.47;;;33.47;;
45274;SDS011;31019;43.780;25.948;2024-03-22T00:09:58;33.97;;;31.45;;
45274;SDS011;31019;43.780;25.948;2024-03-22T00:12:25;32.95;;;30.95;;
45274;SDS011;31019;43.780;25.948;2024-03-22T00:14:52;29.75;;;28.02;;
45274;SDS011;31019;43.780;25.948;2024-03-22T00:17:19;29.02;;;27.23;;
45274;SDS011;31019;43.780;25.948;2024-03-22T00:19:46;32.88;;;30.73;;
45274;SDS011;31019;43.780;25.948;2024-03-22T00:22:14;31.33;;;28.98;;
45274;SDS011;31019;43.780;25.948;2024-03-22T00:24:41;28.30;;;26.70;;
45274;SDS011;31019;43.780;25.948;2024-03-22T00:27:07;30.98;;;29.10;;
45274;SDS011;31019;43.780;25.948;2024-03-22T00:29:36;31.23;;;29.42;;
45274;SDS011;31019;43.780;25.948;2024-03-22T00:32:03;29.63;;;27.75;;
45274;SDS011;31019;43.780;25.948;2024-03-22T00:34:32;28.25;;;26.55;;
45274;SDS011;31019;43.780;25.948;2024-03-22T00:37:00;29.50;;;27.80;;
45274;SDS011;31019;43.780;25.948;2024-03-22T00:39:28;31.45;;;29.63;;
45274;SDS011;31019;43.780;25.948;2024-03-22T00:41:55;31.00;;;29.13;;
45274;SDS011;31019;43.780;25.948;2024-03-22T00:44:22;29.38;;;27.50;;
45274;SDS011;31019;43.780;25.948;2024-03-22T00:46:48;27.60;;;25.67;;
45274;SDS011;31019;43.780;25.948;2024-03-22T00:49:15;32.70;;;30.65;;
45274;SDS011;31019;43.780;25.948;2024-03-22T00:51:41;31.40;;;29.60;;
45274;SDS011;31019;43.780;25.948;2024-03-22T00:54:09;29.35;;;27.73;;
45274;SDS011;31019;43.780;25.948;2024-03-22T00:56:36;30.42;;;28.70;;
45274;SDS011;31019;43.780;25.948;2024-03-22T00:59:03;30.73;;;29.02;;
45274;SDS011;31019;43.780;25.948;2024-03-22T01:01:29;30.27;;;28.58;;
45274;SDS011;31019;43.780;25.948;2024-03-22T01:03:57;29.38;;;27.63;;
45274;SDS011;31019;43.780;25.948;2024-03-22T01:06:23;26.45;;;24.95;;
45274;SDS011;31019;43.780;25.948;2024-03-22T01:08:58;29.25;;;27.25;;
45274;SDS011;31019;43.780;25.948;2024-03-22T01:11:25;28.60;;;26.83;;
45274;SDS011;31019;43.780;25.948;2024-03-22T01:13:53;27.73;;;26.13;;
45274;SDS011;31019;43.780;25.948;2024-03-22T01:16:19;29.92;;;27.80;;
45274;SDS011;31019;43.780;25.948;2024-03-22T01:18:47;30.52;;;28.63;;
45274;SDS011;31019;43.780;25.948;2024-03-22T01:21:13;31.98;;;29.98;;
45274;SDS011;31019;43.780;25.948;2024-03-22T01:23:40;29.33;;;27.42;;
45274;SDS011;31019;43.780;25.948;2024-03-22T01:26:06;29.17;;;27.38;;
45274;SDS011;31019;43.780;25.948;2024-03-22T01:28:34;30.38;;;28.48;;
45274;SDS011;31019;43.780;25.948;2024-03-22T01:31:01;28.35;;;26.55;;
45274;SDS011;31019;43.780;25.948;2024-03-22T01:33:28;28.13;;;26.42;;
45274;SDS011;31019;43.780;25.948;2024-03-22T01:35:54;29.75;;;27.95;;
45274;SDS011;31019;43.780;25.948;2024-03-22T01:38:21;30.83;;;28.65;;
45274;SDS011;31019;43.780;25.948;2024-03-22T01:40:47;30.20;;;28.30;;
45274;SDS011;31019;43.780;25.948;2024-03-22T01:43:15;30.00;;;27.55;;
45274;SDS011;31019;43.780;25.948;2024-03-22T01:45:41;31.55;;;29.20;;
45274;SDS011;31019;43.780;25.948;2024-03-22T01:48:10;29.73;;;27.85;;
45274;SDS011;31019;43.780;25.948;2024-03-22T01:50:37;28.70;;;26.83;;
45274;SDS011;31019;43.780;25.948;2024-03-22T01:53:04;30.58;;;28.67;;
45274;SDS011;31019;43.780;25.948;2024-03-22T01:55:30;31.02;;;29.13;;
45274;SDS011;31019;43.780;25.948;2024-03-22T01:57:58;34.85;;;32.85;;
45274;SDS011;31019;43.780;25.948;2024-03-22T02:00:24;33.50;;;31.40;;
45274;SDS011;31019;43.780;25.948;2024-03-22T02:02:51;31.48;;;29.65;;
45274;SDS011;31019;43.780;25.948;2024-03-22T02:05:19;31.15;;;29.25;;
45274;SDS011;31019;43.780;25.948;2024-03-22T02:07:46;33.17;;;30.92;;
45274;SDS011;31019;43.780;25.948;2024-03-22T02:10:14;35.00;;;32.70;;
45274;SDS011;31019;43.780;25.948;2024-03-22T02:12:41;36.60;;;34.20;;
45274;SDS011;31019;43.780;25.948;2024-03-22T02:15:08;35.20;;;32.28;;
45274;SDS011;31019;43.780;25.948;2024-03-22T02:17:36;35.72;;;33.53;;
45274;SDS011;31019;43.780;25.948;2024-03-22T02:20:02;36.10;;;33.90;;
45274;SDS011;31019;43.780;25.948;2024-03-22T02:22:32;34.22;;;31.92;;
45274;SDS011;31019;43.780;25.948;2024-03-22T02:25:00;34.75;;;32.65;;
45274;SDS011;31019;43.780;25.948;2024-03-22T02:27:27;36.90;;;34.58;;
45274;SDS011;31019;43.780;25.948;2024-03-22T02:29:53;34.25;;;32.05;;
45274;SDS011;31019;43.780;25.948;2024-03-22T02:32:20;37.22;;;34.83;;
45274;SDS011;31019;43.780;25.948;2024-03-22T02:34:46;35.58;;;33.47;;
45274;SDS011;31019;43.780;25.948;2024-03-22T02:37:15;35.55;;;33.40;;
45274;SDS011;31019;43.780;25.948;2024-03-22T02:39:46;35.95;;;33.65;;
45274;SDS011;31019;43.780;25.948;2024-03-22T02:42:15;38.03;;;35.35;;
45274;SDS011;31019;43.780;25.948;2024-03-22T02:44:41;33.22;;;31.23;;
45274;SDS011;31019;43.780;25.948;2024-03-22T02:47:09;33.05;;;30.75;;
45274;SDS011;31019;43.780;25.948;2024-03-22T02:49:35;38.67;;;35.65;;
45274;SDS011;31019;43.780;25.948;2024-03-22T02:52:02;34.50;;;32.30;;
45274;SDS011;31019;43.780;25.948;2024-03-22T02:54:29;30.80;;;28.80;;
45274;SDS011;31019;43.780;25.948;2024-03-22T02:56:58;33.05;;;31.00;;
45274;SDS011;31019;43.780;25.948;2024-03-22T02:59:26;34.50;;;32.50;;
45274;SDS011;31019;43.780;25.948;2024-03-22T03:01:54;36.10;;;33.90;;
45274;SDS011;31019;43.780;25.948;2024-03-22T03:04:20;32.55;;;30.45;;
45274;SDS011;31019;43.780;25.948;2024-03-22T03:06:47;30.73;;;28.77;;
45274;SDS011;31019;43.780;25.948;2024-03-22T03:09:13;34.28;;;32.08;;
45274;SDS011;31019;43.780;25.948;2024-03-22T03:11:40;36.72;;;34.47;;
45274;SDS011;31019;43.780;25.948;2024-03-22T03:14:06;32.38;;;30.58;;
45274;SDS011;31019;43.780;25.948;2024-03-22T03:16:35;32.63;;;30.52;;
45274;SDS011;31019;43.780;25.948;2024-03-22T03:19:01;30.08;;;28.17;;
45274;SDS011;31019;43.780;25.948;2024-03-22T03:21:28;35.13;;;32.05;;
45274;SDS011;31019;43.780;25.948;2024-03-22T03:23:54;34.08;;;31.88;;
45274;SDS011;31019;43.780;25.948;2024-03-22T03:26:23;30.15;;;27.80;;
45274;SDS011;31019;43.780;25.948;2024-03-22T03:28:49;29.45;;;27.45;;
45274;SDS011;31019;43.780;25.948;2024-03-22T03:31:16;30.63;;;28.63;;
45274;SDS011;31019;43.780;25.948;2024-03-22T03:33:44;35.88;;;33.03;;
45274;SDS011;31019;43.780;25.948;2024-03-22T03:36:11;28.90;;;27.00;;
45274;SDS011;31019;43.780;25.948;2024-03-22T03:38:37;29.20;;;27.30;;
45274;SDS011;31019;43.780;25.948;2024-03-22T03:41:04;32.50;;;30.08;;
45274;SDS011;31019;43.780;25.948;2024-03-22T03:43:31;29.27;;;27.38;;
45274;SDS011;31019;43.780;25.948;2024-03-22T03:45:58;29.50;;;27.50;;
45274;SDS011;31019;43.780;25.948;2024-03-22T03:48:25;30.40;;;28.17;;
45274;SDS011;31019;43.780;25.948;2024-03-22T03:50:54;29.90;;;27.92;;
45274;SDS011;31019;43.780;25.948;2024-03-22T03:53:20;29.80;;;27.90;;
45274;SDS011;31019;43.780;25.948;2024-03-22T03:55:47;31.60;;;29.27;;
45274;SDS011;31019;43.780;25.948;2024-03-22T03:58:13;29.55;;;27.58;;
45274;SDS011;31019;43.780;25.948;2024-03-22T04:00:43;29.95;;;27.95;;
45274;SDS011;31019;43.780;25.948;2024-03-22T04:03:09;27.65;;;25.85;;
45274;SDS011;31019;43.780;25.948;2024-03-22T04:05:36;31.40;;;29.30;;
45274;SDS011;31019;43.780;25.948;2024-03-22T04:08:04;30.38;;;28.08;;
45274;SDS011;31019;43.780;25.948;2024-03-22T04:10:32;29.33;;;27.33;;
45274;SDS011;31019;43.780;25.948;2024-03-22T04:12:58;28.05;;;26.25;;
45274;SDS011;31019;43.780;25.948;2024-03-22T04:15:27;26.85;;;25.05;;
45274;SDS011;31019;43.780;25.948;2024-03-22T04:17:56;26.65;;;24.58;;
45274;SDS011;31019;43.780;25.948;2024-03-22T04:20:23;23.35;;;21.75;;
45274;SDS011;31019;43.780;25.948;2024-03-22T04:22:49;33.20;;;30.92;;
45274;SDS011;31019;43.780;25.948;2024-03-22T04:25:19;29.38;;;27.48;;
45274;SDS011;31019;43.780;25.948;2024-03-22T04:27:44;29.98;;;28.08;;
45274;SDS011;31019;43.780;25.948;2024-03-22T04:30:12;55.03;;;50.60;;
45274;SDS011;31019;43.780;25.948;2024-03-22T04:32:38;31.55;;;29.25;;
45274;SDS011;31019;43.780;25.948;2024-03-22T04:35:05;31.80;;;29.90;;
45274;SDS011;31019;43.780;25.948;2024-03-22T04:37:31;30.17;;;28.33;;
45274;SDS011;31019;43.780;25.948;2024-03-22T04:39:58;29.83;;;27.80;;
45274;SDS011;31019;43.780;25.948;2024-03-22T04:42:27;28.38;;;26.55;;
45274;SDS011;31019;43.780;25.948;2024-03-22T04:44:54;29.75;;;27.85;;
45274;SDS011;31019;43.780;25.948;2024-03-22T04:47:22;28.58;;;26.67;;
45274;SDS011;31019;43.780;25.948;2024-03-22T04:49:48;26.60;;;24.80;;
45274;SDS011;31019;43.780;25.948;2024-03-22T04:52:16;30.08;;;28.08;;
45274;SDS011;31019;43.780;25.948;2024-03-22T04:54:42;27.65;;;25.85;;
45274;SDS011;31019;43.780;25.948;2024-03-22T04:57:09;30.45;;;28.55;;
45274;SDS011;31019;43.780;25.948;2024-03-22T04:59:36;25.70;;;24.10;;
45274;SDS011;31019;43.780;25.948;2024-03-22T05:02:03;30.10;;;28.02;;
45274;SDS011;31019;43.780;25.948;2024-03-22T05:04:30;29.20;;;26.65;;
45274;SDS011;31019;43.780;25.948;2024-03-22T05:06:57;26.65;;;24.85;;
45274;SDS011;31019;43.780;25.948;2024-03-22T05:09:23;29.48;;;27.52;;
45274;SDS011;31019;43.780;25.948;2024-03-22T05:11:50;30.33;;;27.75;;
45274;SDS011;31019;43.780;25.948;2024-03-22T05:14:16;27.92;;;26.02;;
45274;SDS011;31019;43.780;25.948;2024-03-22T05:16:46;26.02;;;24.42;;
45274;SDS011;31019;43.780;25.948;2024-03-22T05:19:12;27.25;;;25.55;;
45274;SDS011;31019;43.780;25.948;2024-03-22T05:21:39;27.23;;;25.02;;
45274;SDS011;31019;43.780;25.948;2024-03-22T05:24:05;27.42;;;25.55;;
45274;SDS011;31019;43.780;25.948;2024-03-22T05:26:32;26.58;;;24.77;;
45274;SDS011;31019;43.780;25.948;2024-03-22T05:29:01;27.50;;;25.50;;
45274;SDS011;31019;43.780;25.948;2024-03-22T05:31:29;27.10;;;25.10;;
45274;SDS011;31019;43.780;25.948;2024-03-22T05:33:57;28.38;;;26.10;;
45274;SDS011;31019;43.780;25.948;2024-03-22T05:36:24;27.33;;;25.52;;
45274;SDS011;31019;43.780;25.948;2024-03-22T05:38:54;28.75;;;26.75;;
45274;SDS011;31019;43.780;25.948;2024-03-22T05:41:21;28.63;;;26.58;;
45274;SDS011;31019;43.780;25.948;2024-03-22T05:43:47;28.52;;;26.63;;
45274;SDS011;31019;43.780;25.948;2024-03-22T05:46:14;27.10;;;25.30;;
45274;SDS011;31019;43.780;25.948;2024-03-22T05:48:41;29.65;;;27.75;;
45274;SDS011;31019;43.780;25.948;2024-03-22T05:51:08;29.45;;;27.55;;
45274;SDS011;31019;43.780;25.948;2024-03-22T05:53:35;30.83;;;28.70;;
45274;SDS011;31019;43.780;25.948;2024-03-22T05:56:02;29.83;;;27.73;;
45274;SDS011;31019;43.780;25.948;2024-03-22T05:58:29;30.48;;;28.48;;
45274;SDS011;31019;43.780;25.948;2024-03-22T06:00:55;32.72;;;30.50;;
45274;SDS011;31019;43.780;25.948;2024-03-22T06:03:23;29.70;;;27.60;;
45274;SDS011;31019;43.780;25.948;2024-03-22T06:05:50;30.15;;;27.95;;
45274;SDS011;31019;43.780;25.948;2024-03-22T06:08:22;32.97;;;30.52;;
45274;SDS011;31019;43.780;25.948;2024-03-22T06:10:48;30.27;;;28.17;;
45274;SDS011;31019;43.780;25.948;2024-03-22T06:13:15;29.35;;;27.35;;
45274;SDS011;31019;43.780;25.948;2024-03-22T06:15:42;30.10;;;28.00;;
45274;SDS011;31019;43.780;25.948;2024-03-22T06:18:11;29.83;;;27.60;;
45274;SDS011;31019;43.780;25.948;2024-03-22T06:20:38;31.45;;;29.25;;
45274;SDS011;31019;43.780;25.948;2024-03-22T06:23:04;32.60;;;30.20;;
45274;SDS011;31019;43.780;25.948;2024-03-22T06:25:32;33.08;;;30.67;;
45274;SDS011;31019;43.780;25.948;2024-03-22T06:27:58;31.77;;;29.58;;
45274;SDS011;31019;43.780;25.948;2024-03-22T06:30:25;33.28;;;31.08;;
45274;SDS011;31019;43.780;25.948;2024-03-22T06:32:52;33.45;;;30.92;;
45274;SDS011;31019;43.780;25.948;2024-03-22T06:35:20;34.15;;;31.75;;
45274;SDS011;31019;43.780;25.948;2024-03-22T06:37:46;34.47;;;31.88;;
45274;SDS011;31019;43.780;25.948;2024-03-22T06:40:14;37.53;;;35.03;;
45274;SDS011;31019;43.780;25.948;2024-03-22T06:42:42;39.40;;;36.70;;
45274;SDS011;31019;43.780;25.948;2024-03-22T06:45:09;40.40;;;37.60;;
45274;SDS011;31019;43.780;25.948;2024-03-22T06:47:35;37.70;;;35.22;;
45274;SDS011;31019;43.780;25.948;2024-03-22T06:50:02;40.33;;;37.35;;
45274;SDS011;31019;43.780;25.948;2024-03-22T06:52:30;40.10;;;37.42;;
45274;SDS011;31019;43.780;25.948;2024-03-22T06:54:58;40.10;;;37.40;;
45274;SDS011;31019;43.780;25.948;2024-03-22T06:57:24;41.97;;;39.08;;
45274;SDS011;31019;43.780;25.948;2024-03-22T06:59:52;40.95;;;38.30;;
45274;SDS011;31019;43.780;25.948;2024-03-22T07:02:18;41.15;;;38.45;;
45274;SDS011;31019;43.780;25.948;2024-03-22T07:04:45;42.20;;;39.35;;
45274;SDS011;31019;43.780;25.948;2024-03-22T07:07:12;42.30;;;39.25;;
45274;SDS011;31019;43.780;25.948;2024-03-22T07:09:39;42.03;;;39.08;;
45274;SDS011;31019;43.780;25.948;2024-03-22T07:12:05;44.30;;;41.30;;
45274;SDS011;31019;43.780;25.948;2024-03-22T07:14:32;44.33;;;41.53;;
45274;SDS011;31019;43.780;25.948;2024-03-22T07:17:00;42.55;;;39.85;;
45274;SDS011;31019;43.780;25.948;2024-03-22T07:19:27;42.90;;;40.10;;
45274;SDS011;31019;43.780;25.948;2024-03-22T07:21:54;45.83;;;43.03;;
45274;SDS011;31019;43.780;25.948;2024-03-22T07:24:21;44.30;;;41.58;;
45274;SDS011;31019;43.780;25.948;2024-03-22T07:26:49;43.92;;;41.13;;
45274;SDS011;31019;43.780;25.948;2024-03-22T07:29:16;44.78;;;41.67;;
45274;SDS011;31019;43.780;25.948;2024-03-22T07:31:42;48.47;;;45.47;;
45274;SDS011;31019;43.780;25.948;2024-03-22T07:34:11;50.38;;;47.40;;
45274;SDS011;31019;43.780;25.948;2024-03-22T07:36:37;51.00;;;48.00;;
45274;SDS011;31019;43.780;25.948;2024-03-22T07:39:04;52.78;;;49.47;;
45274;SDS011;31019;43.780;25.948;2024-03-22T07:41:31;52.90;;;49.50;;
45274;SDS011;31019;43.780;25.948;2024-03-22T07:43:58;47.30;;;44.50;;
45274;SDS011;31019;43.780;25.948;2024-03-22T07:46:25;45.80;;;42.88;;
45274;SDS011;31019;43.780;25.948;2024-03-22T07:48:52;53.67;;;50.28;;
45274;SDS011;31019;43.780;25.948;2024-03-22T07:51:20;59.72;;;55.83;;
45274;SDS011;31019;43.780;25.948;2024-03-22T07:53:47;57.05;;;53.45;;
45274;SDS011;31019;43.780;25.948;2024-03-22T07:56:13;52.35;;;49.05;;
45274;SDS011;31019;43.780;25.948;2024-03-22T07:58:41;56.80;;;52.88;;
45274;SDS011;31019;43.780;25.948;2024-03-22T08:01:08;47.58;;;44.45;;
45274;SDS011;31019;43.780;25.948;2024-03-22T08:03:35;51.00;;;47.55;;
45274;SDS011;31019;43.780;25.948;2024-03-22T08:06:01;54.03;;;50.38;;
45274;SDS011;31019;43.780;25.948;2024-03-22T08:08:30;46.38;;;42.85;;
45274;SDS011;31019;43.780;25.948;2024-03-22T08:10:56;50.70;;;47.38;;
45274;SDS011;31019;43.780;25.948;2024-03-22T08:13:23;49.33;;;46.13;;
45274;SDS011;31019;43.780;25.948;2024-03-22T08:15:49;60.95;;;56.97;;
45274;SDS011;31019;43.780;25.948;2024-03-22T08:18:16;53.25;;;49.88;;
45274;SDS011;31019;43.780;25.948;2024-03-22T08:20:42;56.08;;;52.47;;
45274;SDS011;31019;43.780;25.948;2024-03-22T08:23:10;57.00;;;53.33;;
45274;SDS011;31019;43.780;25.948;2024-03-22T08:25:37;45.85;;;42.90;;
45274;SDS011;31019;43.780;25.948;2024-03-22T08:28:05;42.75;;;40.05;;
45274;SDS011;31019;43.780;25.948;2024-03-22T08:30:31;54.95;;;51.55;;
45274;SDS011;31019;43.780;25.948;2024-03-22T08:32:58;51.60;;;48.50;;
45274;SDS011;31019;43.780;25.948;2024-03-22T08:35:24;47.50;;;44.50;;
45274;SDS011;31019;43.780;25.948;2024-03-22T08:37:51;47.22;;;44.22;;
45274;SDS011;31019;43.780;25.948;2024-03-22T08:40:17;47.40;;;44.45;;
45274;SDS011;31019;43.780;25.948;2024-03-22T08:45:15;52.58;;;49.13;;
45274;SDS011;31019;43.780;25.948;2024-03-22T08:47:43;42.30;;;39.70;;
45274;SDS011;31019;43.780;25.948;2024-03-22T08:50:10;40.17;;;37.42;;
45274;SDS011;31019;43.780;25.948;2024-03-22T08:52:37;38.97;;;36.40;;
45274;SDS011;31019;43.780;25.948;2024-03-22T08:55:04;39.80;;;37.28;;
45274;SDS011;31019;43.780;25.948;2024-03-22T08:57:32;41.35;;;39.15;;
45274;SDS011;31019;43.780;25.948;2024-03-22T09:00:00;48.20;;;45.60;;
45274;SDS011;31019;43.780;25.948;2024-03-22T09:02:27;45.30;;;43.00;;
45274;SDS011;31019;43.780;25.948;2024-03-22T09:04:53;52.95;;;50.13;;
45274;SDS011;31019;43.780;25.948;2024-03-22T09:07:21;47.25;;;44.85;;
45274;SDS011;31019;43.780;25.948;2024-03-22T09:09:49;45.50;;;42.90;;
45274;SDS011;31019;43.780;25.948;2024-03-22T09:12:16;42.90;;;40.50;;
45274;SDS011;31019;43.780;25.948;2024-03-22T09:14:42;45.40;;;42.90;;
45274;SDS011;31019;43.780;25.948;2024-03-22T09:17:10;34.78;;;32.78;;
45274;SDS011;31019;43.780;25.948;2024-03-22T09:19:36;35.55;;;33.15;;
45274;SDS011;31019;43.780;25.948;2024-03-22T09:22:04;39.70;;;37.30;;
45274;SDS011;31019;43.780;25.948;2024-03-22T09:24:30;37.55;;;35.35;;
45274;SDS011;31019;43.780;25.948;2024-03-22T09:26:57;45.42;;;42.72;;
45274;SDS011;31019;43.780;25.948;2024-03-22T09:29:24;39.95;;;37.55;;
45274;SDS011;31019;43.780;25.948;2024-03-22T09:31:51;45.47;;;42.40;;
45274;SDS011;31019;43.780;25.948;2024-03-22T09:34:18;47.33;;;44.47;;
45274;SDS011;31019;43.780;25.948;2024-03-22T09:36:46;39.97;;;37.53;;
45274;SDS011;31019;43.780;25.948;2024-03-22T09:39:12;41.40;;;39.10;;
45274;SDS011;31019;43.780;25.948;2024-03-22T09:41:40;46.45;;;43.50;;
45274;SDS011;31019;43.780;25.948;2024-03-22T09:44:08;40.22;;;37.92;;
45274;SDS011;31019;43.780;25.948;2024-03-22T09:46:40;37.65;;;35.22;;
45274;SDS011;31019;43.780;25.948;2024-03-22T09:49:08;41.42;;;38.97;;
45274;SDS011;31019;43.780;25.948;2024-03-22T09:51:38;37.38;;;35.28;;
45274;SDS011;31019;43.780;25.948;2024-03-22T09:54:05;37.60;;;35.30;;
45274;SDS011;31019;43.780;25.948;2024-03-22T09:56:32;37.53;;;35.22;;
45274;SDS011;31019;43.780;25.948;2024-03-22T09:58:59;39.50;;;37.00;;
45274;SDS011;31019;43.780;25.948;2024-03-22T10:01:26;40.78;;;38.30;;
45274;SDS011;31019;43.780;25.948;2024-03-22T10:03:52;38.42;;;35.83;;
45274;SDS011;31019;43.780;25.948;2024-03-22T10:06:21;39.90;;;37.30;;
45274;SDS011;31019;43.780;25.948;2024-03-22T10:08:49;36.15;;;33.85;;
45274;SDS011;31019;43.780;25.948;2024-03-22T10:11:16;45.92;;;42.80;;
45274;SDS011;31019;43.780;25.948;2024-03-22T10:13:43;40.45;;;37.95;;
45274;SDS011;31019;43.780;25.948;2024-03-22T10:16:12;40.63;;;38.08;;
45274;SDS011;31019;43.780;25.948;2024-03-22T10:18:41;41.15;;;38.45;;
45274;SDS011;31019;43.780;25.948;2024-03-22T10:21:08;42.03;;;39.22;;
45274;SDS011;31019;43.780;25.948;2024-03-22T10:23:34;40.42;;;37.85;;
45274;SDS011;31019;43.780;25.948;2024-03-22T10:26:03;49.30;;;46.20;;
45274;SDS011;31019;43.780;25.948;2024-03-22T10:28:31;45.47;;;42.58;;
45274;SDS011;31019;43.780;25.948;2024-03-22T10:30:58;50.17;;;47.17;;
45274;SDS011;31019;43.780;25.948;2024-03-22T10:33:24;51.53;;;48.20;;
45274;SDS011;31019;43.780;25.948;2024-03-22T10:35:53;41.70;;;38.65;;
45274;SDS011;31019;43.780;25.948;2024-03-22T10:38:19;40.60;;;38.20;;
45274;SDS011;31019;43.780;25.948;2024-03-22T10:40:47;38.85;;;36.35;;
45274;SDS011;31019;43.780;25.948;2024-03-22T10:43:15;41.53;;;38.65;;
45274;SDS011;31019;43.780;25.948;2024-03-22T10:45:43;41.30;;;38.55;;
45274;SDS011;31019;43.780;25.948;2024-03-22T10:48:13;40.45;;;37.75;;
45274;SDS011;31019;43.780;25.948;2024-03-22T10:50:44;39.42;;;36.92;;
45274;SDS011;31019;43.780;25.948;2024-03-22T10:53:12;39.58;;;37.08;;
45274;SDS011;31019;43.780;25.948;2024-03-22T10:55:43;40.80;;;38.10;;
45274;SDS011;31019;43.780;25.948;2024-03-22T10:58:15;43.72;;;40.83;;
45274;SDS011;31019;43.780;25.948;2024-03-22T11:00:43;40.10;;;37.50;;
45274;SDS011;31019;43.780;25.948;2024-03-22T11:03:10;37.35;;;34.95;;
45274;SDS011;31019;43.780;25.948;2024-03-22T11:05:44;36.88;;;34.58;;
45274;SDS011;31019;43.780;25.948;2024-03-22T11:08:11;37.70;;;35.25;;
45274;SDS011;31019;43.780;25.948;2024-03-22T11:10:38;36.58;;;34.28;;
45274;SDS011;31019;43.780;25.948;2024-03-22T11:13:05;38.55;;;35.95;;
45274;SDS011;31019;43.780;25.948;2024-03-22T11:15:35;41.45;;;38.85;;
45274;SDS011;31019;43.780;25.948;2024-03-22T11:18:01;43.33;;;40.65;;
45274;SDS011;31019;43.780;25.948;2024-03-22T11:20:28;36.78;;;34.38;;
45274;SDS011;31019;43.780;25.948;2024-03-22T11:22:56;44.83;;;42.05;;
45274;SDS011;31019;43.780;25.948;2024-03-22T11:25:23;43.63;;;40.92;;
45274;SDS011;31019;43.780;25.948;2024-03-22T11:27:49;43.50;;;40.80;;
45274;SDS011;31019;43.780;25.948;2024-03-22T11:30:16;36.97;;;34.53;;
45274;SDS011;31019;43.780;25.948;2024-03-22T11:32:44;48.35;;;45.45;;
45274;SDS011;31019;43.780;25.948;2024-03-22T11:35:11;51.38;;;48.38;;
45274;SDS011;31019;43.780;25.948;2024-03-22T11:37:38;44.78;;;42.03;;
45274;SDS011;31019;43.780;25.948;2024-03-22T11:40:06;46.08;;;43.28;;
45274;SDS011;31019;43.780;25.948;2024-03-22T11:42:35;34.78;;;32.40;;
45274;SDS011;31019;43.780;25.948;2024-03-22T11:45:03;35.15;;;32.75;;
45274;SDS011;31019;43.780;25.948;2024-03-22T11:47:31;35.28;;;32.97;;
45274;SDS011;31019;43.780;25.948;2024-03-22T11:50:01;37.08;;;34.67;;
45274;SDS011;31019;43.780;25.948;2024-03-22T11:52:31;36.67;;;34.28;;
45274;SDS011;31019;43.780;25.948;2024-03-22T11:54:59;47.78;;;44.88;;
45274;SDS011;31019;43.780;25.948;2024-03-22T11:57:26;44.58;;;41.70;;
45274;SDS011;31019;43.780;25.948;2024-03-22T11:59:58;49.35;;;45.95;;
45274;SDS011;31019;43.780;25.948;2024-03-22T12:02:26;45.90;;;43.17;;
45274;SDS011;31019;43.780;25.948;2024-03-22T12:04:53;48.20;;;45.30;;
45274;SDS011;31019;43.780;25.948;2024-03-22T12:07:21;46.40;;;43.70;;
45274;SDS011;31019;43.780;25.948;2024-03-22T12:09:48;45.92;;;43.13;;
45274;SDS011;31019;43.780;25.948;2024-03-22T12:12:14;55.53;;;52.22;;
45274;SDS011;31019;43.780;25.948;2024-03-22T12:14:41;48.13;;;45.13;;
45274;SDS011;31019;43.780;25.948;2024-03-22T12:17:07;47.42;;;44.42;;
45274;SDS011;31019;43.780;25.948;2024-03-22T12:19:34;47.28;;;44.08;;
45274;SDS011;31019;43.780;25.948;2024-03-22T12:22:00;47.80;;;44.60;;
45274;SDS011;31019;43.780;25.948;2024-03-22T12:24:29;44.95;;;42.03;;
45274;SDS011;31019;43.780;25.948;2024-03-22T12:26:59;41.88;;;38.78;;
45274;SDS011;31019;43.780;25.948;2024-03-22T12:29:26;39.95;;;37.22;;
45274;SDS011;31019;43.780;25.948;2024-03-22T12:31:53;50.05;;;47.05;;
45274;SDS011;31019;43.780;25.948;2024-03-22T12:34:20;46.88;;;43.97;;
45274;SDS011;31019;43.780;25.948;2024-03-22T12:36:46;42.53;;;39.83;;
45274;SDS011;31019;43.780;25.948;2024-03-22T12:39:14;43.90;;;41.10;;
45274;SDS011;31019;43.780;25.948;2024-03-22T12:41:41;47.83;;;44.72;;
45274;SDS011;31019;43.780;25.948;2024-03-22T12:44:08;38.50;;;35.90;;
45274;SDS011;31019;43.780;25.948;2024-03-22T12:46:34;39.95;;;36.95;;
45274;SDS011;31019;43.780;25.948;2024-03-22T12:49:02;42.03;;;39.22;;
45274;SDS011;31019;43.780;25.948;2024-03-22T12:51:28;47.15;;;44.05;;
45274;SDS011;31019;43.780;25.948;2024-03-22T12:53:55;41.83;;;39.03;;
45274;SDS011;31019;43.780;25.948;2024-03-22T12:56:27;43.65;;;40.55;;
45274;SDS011;31019;43.780;25.948;2024-03-22T12:58:58;42.45;;;39.50;;
45274;SDS011;31019;43.780;25.948;2024-03-22T13:01:24;47.40;;;44.10;;
45274;SDS011;31019;43.780;25.948;2024-03-22T13:03:51;39.80;;;36.90;;
45274;SDS011;31019;43.780;25.948;2024-03-22T13:06:17;39.63;;;36.75;;
45274;SDS011;31019;43.780;25.948;2024-03-22T13:08:44;42.25;;;39.25;;
45274;SDS011;31019;43.780;25.948;2024-03-22T13:11:13;44.42;;;41.33;;
45274;SDS011;31019;43.780;25.948;2024-03-22T13:13:40;39.30;;;36.50;;
45274;SDS011;31019;43.780;25.948;2024-03-22T13:16:07;41.97;;;39.08;;
45274;SDS011;31019;43.780;25.948;2024-03-22T13:18:36;43.40;;;40.50;;
45274;SDS011;31019;43.780;25.948;2024-03-22T13:21:03;50.15;;;46.97;;
45274;SDS011;31019;43.780;25.948;2024-03-22T13:23:30;38.60;;;36.20;;
45274;SDS011;31019;43.780;25.948;2024-03-22T13:25:56;39.10;;;36.50;;
45274;SDS011;31019;43.780;25.948;2024-03-22T13:28:24;40.47;;;37.88;;
45274;SDS011;31019;43.780;25.948;2024-03-22T13:30:58;43.42;;;40.63;;
45274;SDS011;31019;43.780;25.948;2024-03-22T13:33:27;40.92;;;38.22;;
45274;SDS011;31019;43.780;25.948;2024-03-22T13:35:53;40.28;;;37.60;;
45274;SDS011;31019;43.780;25.948;2024-03-22T13:38:20;41.25;;;38.35;;
45274;SDS011;31019;43.780;25.948;2024-03-22T13:40:52;37.85;;;35.45;;
45274;SDS011;31019;43.780;25.948;2024-03-22T13:43:20;35.90;;;33.70;;
45274;SDS011;31019;43.780;25.948;2024-03-22T13:45:46;36.78;;;34.47;;
45274;SDS011;31019;43.780;25.948;2024-03-22T13:48:19;38.72;;;36.22;;
45274;SDS011;31019;43.780;25.948;2024-03-22T13:50:50;46.72;;;41.85;;
45274;SDS011;31019;43.780;25.948;2024-03-22T13:53:18;41.95;;;39.35;;
45274;SDS011;31019;43.780;25.948;2024-03-22T13:55:47;47.63;;;44.72;;
45274;SDS011;31019;43.780;25.948;2024-03-22T13:58:14;41.95;;;39.25;;
45274;SDS011;31019;43.780;25.948;2024-03-22T14:00:40;47.05;;;44.13;;
45274;SDS011;31019;43.780;25.948;2024-03-22T14:03:07;45.40;;;42.28;;
45274;SDS011;31019;43.780;25.948;2024-03-22T14:05:34;45.38;;;42.15;;
45274;SDS011;31019;43.780;25.948;2024-03-22T14:08:03;46.30;;;43.20;;
45274;SDS011;31019;43.780;25.948;2024-03-22T14:10:30;44.67;;;41.78;;